Time;durP1;ratioP1;P1;durP2;ratioP2;P2;SDS_P1;SDS_P2;PMS_P1;PMS_P2;Temp;Humidity;BMP_temperature;BMP_pressure;BME280_temperature;BME280_humidity;BME280_pressure;Samples;Min_cycle;Max_cycle;Signal;HPM_P1;HPM_P2
2024/04/17 00:00:08;;;;;;;2.43;1.20;;;;;;;9.12;94.91;97229.03;4537704;26;20599;-81
2024/04/17 00:02:14;;;;;;;1.70;1.00;;;;;;;9.15;95.04;97225.41;4527832;26;20564;-80
2024/04/17 00:04:17;;;;;;;2.03;1.00;;;;;;;9.14;94.81;97219.38;4541558;26;20237;-81
2024/04/17 00:06:23;;;;;;;1.80;1.00;;;;;;;9.09;94.41;97229.28;4532051;26;20636;-81
2024/04/17 00:08:26;;;;;;;2.80;1.00;;;;;;;8.87;95.56;97227.59;4501433;26;20245;-81
2024/04/17 00:10:32;;;;;;;2.50;1.00;;;;;;;8.61;96.05;97219.16;4530383;26;20547;-81
2024/04/17 00:12:37;;;;;;;1.67;0.98;;;;;;;8.32;95.91;97213.66;4562205;25;20263;-81
2024/04/17 00:14:44;;;;;;;2.08;1.00;;;;;;;8.28;97.21;97214.78;4508087;26;21072;-81
2024/04/17 00:16:47;;;;;;;1.35;0.60;;;;;;;8.23;95.95;97209.13;4544259;26;20626;-81
2024/04/17 00:18:52;;;;;;;2.40;1.08;;;;;;;8.09;95.41;97212.69;4556138;26;20310;-82
2024/04/17 00:20:55;;;;;;;1.40;0.60;;;;;;;8.05;96.31;97207.81;4548972;26;20241;-82
2024/04/17 00:23:01;;;;;;;1.25;0.70;;;;;;;7.90;95.10;97221.09;4506221;26;20774;-82
2024/04/17 00:25:04;;;;;;;1.20;0.57;;;;;;;7.82;95.58;97210.41;4528620;26;20735;-81
2024/04/17 00:27:09;;;;;;;1.30;0.45;;;;;;;7.68;95.79;97218.34;4529901;26;20293;-82
2024/04/17 00:29:15;;;;;;;1.20;0.60;;;;;;;7.69;96.12;97225.22;4538121;26;20240;-81
2024/04/17 00:31:20;;;;;;;1.48;0.40;;;;;;;7.62;95.66;97214.44;4545180;26;20590;-81
2024/04/17 00:33:24;;;;;;;1.75;0.50;;;;;;;7.64;96.05;97225.53;4551569;26;20276;-81
2024/04/17 00:35:29;;;;;;;2.08;0.47;;;;;;;7.66;96.04;97217.63;4538536;25;20243;-82
2024/04/17 00:37:32;;;;;;;1.20;0.50;;;;;;;7.72;95.92;97217.22;4533184;26;20711;-82
2024/04/17 00:39:37;;;;;;;1.25;0.50;;;;;;;7.75;96.03;97215.22;4535123;26;20280;-82
2024/04/17 00:41:40;;;;;;;2.75;0.65;;;;;;;7.78;95.83;97219.38;4529244;26;20343;-81
2024/04/17 00:43:46;;;;;;;1.17;0.47;;;;;;;7.80;95.75;97226.09;4543126;26;20294;-82
2024/04/17 00:45:52;;;;;;;1.35;0.57;;;;;;;7.81;95.47;97221.75;4540041;26;20245;-82
2024/04/17 00:47:58;;;;;;;1.23;0.52;;;;;;;7.86;95.87;97222.25;4548107;26;20240;-81
2024/04/17 00:50:01;;;;;;;1.30;0.50;;;;;;;7.92;96.43;97221.78;4542846;26;20240;-82
2024/04/17 00:52:08;;;;;;;1.20;0.55;;;;;;;7.97;96.19;97223.13;4531333;26;20241;-81
2024/04/17 00:54:11;;;;;;;1.30;0.40;;;;;;;8.00;96.55;97220.31;4542279;26;20355;-82
2024/04/17 00:56:17;;;;;;;1.30;0.40;;;;;;;8.07;96.13;97222.38;4525888;26;20253;-82
2024/04/17 00:58:21;;;;;;;1.85;0.40;;;;;;;8.10;96.21;97221.28;4506510;26;20242;-82
2024/04/17 01:00:27;;;;;;;1.30;0.60;;;;;;;8.15;96.22;97224.44;4540980;26;20280;-82
2024/04/17 01:02:33;;;;;;;1.27;0.50;;;;;;;8.18;95.94;97221.63;4539911;26;20255;-81
2024/04/17 01:04:39;;;;;;;1.10;0.40;;;;;;;8.20;96.00;97215.34;4537510;26;20245;-81
2024/04/17 01:06:43;;;;;;;1.10;0.50;;;;;;;8.22;95.97;97223.84;4526010;26;20256;-82
2024/04/17 01:08:48;;;;;;;1.20;0.50;;;;;;;8.26;96.15;97227.91;4531857;26;20714;-82
2024/04/17 01:10:59;;;;;;;1.30;0.50;;;;;;;8.26;95.78;97222.69;4494876;26;20247;-81
2024/04/17 01:13:05;;;;;;;3.38;0.65;;;;;;;8.27;96.01;97216.56;4538860;26;21096;-81
2024/04/17 01:15:09;;;;;;;1.30;0.47;;;;;;;8.32;95.76;97227.44;4534494;26;20248;-82
2024/04/17 01:17:16;;;;;;;1.13;0.47;;;;;;;8.33;95.54;97220.47;4503984;26;21101;-82
2024/04/17 01:19:22;;;;;;;1.10;0.50;;;;;;;8.34;95.75;97220.38;4540592;26;20284;-81
2024/04/17 01:21:28;;;;;;;1.10;0.50;;;;;;;8.35;95.99;97227.22;4535666;26;20970;-82
2024/04/17 01:23:31;;;;;;;1.20;0.50;;;;;;;8.37;96.58;97221.91;4503638;26;20256;-81
2024/04/17 01:25:39;;;;;;;1.27;0.60;;;;;;;8.37;96.38;97214.13;4535271;26;20245;-82
2024/04/17 01:27:42;;;;;;;1.20;0.50;;;;;;;8.36;96.90;97218.50;4527560;26;20735;-82
2024/04/17 01:29:48;;;;;;;1.20;0.60;;;;;;;8.36;97.24;97207.25;4506198;26;20261;-82
2024/04/17 01:31:52;;;;;;;1.20;0.50;;;;;;;8.33;97.35;97212.69;4548423;26;20238;-82
2024/04/17 01:33:57;;;;;;;1.53;0.70;;;;;;;8.33;97.08;97212.69;4538637;26;20276;-82
2024/04/17 01:36:01;;;;;;;1.63;0.50;;;;;;;8.35;96.53;97205.63;4530018;26;21189;-81
2024/04/17 01:38:07;;;;;;;2.70;0.80;;;;;;;8.34;96.75;97209.97;4537179;26;20249;-82
2024/04/17 01:40:10;;;;;;;1.75;0.50;;;;;;;8.36;96.59;97209.84;4527538;26;20646;-82
2024/04/17 01:42:18;;;;;;;1.52;0.60;;;;;;;8.38;96.70;97208.81;4527268;26;20249;-82
2024/04/17 01:44:23;;;;;;;1.60;0.60;;;;;;;8.38;97.37;97208.81;4528222;26;20684;-82
2024/04/17 01:46:34;;;;;;;1.23;0.60;;;;;;;8.40;97.61;97214.72;4565722;25;20312;-81
2024/04/17 01:48:37;;;;;;;1.50;0.70;;;;;;;8.41;97.17;97216.38;4534883;26;20270;-82
2024/04/17 01:50:43;;;;;;;1.33;0.70;;;;;;;8.44;97.17;97216.16;4524197;26;21049;-82
2024/04/17 01:52:45;;;;;;;1.30;0.60;;;;;;;8.46;96.93;97219.47;4507444;26;20250;-82
2024/04/17 01:54:52;;;;;;;1.83;0.77;;;;;;;8.45;97.15;97223.03;4545639;26;20622;-82
2024/04/17 01:56:55;;;;;;;1.40;0.70;;;;;;;8.45;97.44;97225.63;4511640;26;20580;-82
2024/04/17 01:59:03;;;;;;;1.70;0.60;;;;;;;8.45;96.75;97228.22;4533668;26;20239;-82
2024/04/17 02:01:06;;;;;;;1.67;0.70;;;;;;;8.44;97.01;97217.94;4537483;26;20242;-82
2024/04/17 02:03:12;;;;;;;1.30;0.60;;;;;;;8.46;97.30;97229.84;4509360;26;20564;-82
2024/04/17 02:05:15;;;;;;;1.35;0.70;;;;;;;8.49;96.44;97227.03;4539797;26;20245;-82
2024/04/17 02:07:21;;;;;;;1.50;0.70;;;;;;;8.51;96.60;97232.97;4505994;26;20309;-82
2024/04/17 02:09:24;;;;;;;1.40;0.80;;;;;;;8.50;96.74;97236.50;4535274;26;20402;-82
2024/04/17 02:11:30;;;;;;;1.97;0.80;;;;;;;8.49;96.33;97234.81;4493328;26;20265;-82
2024/04/17 02:13:33;;;;;;;1.40;0.65;;;;;;;8.48;96.36;97235.78;4547416;26;20611;-82
2024/04/17 02:15:41;;;;;;;1.30;0.70;;;;;;;8.48;96.62;97230.59;4538000;26;20264;-82
2024/04/17 02:17:44;;;;;;;1.20;0.70;;;;;;;8.48;96.71;97239.19;4530394;26;20241;-82
2024/04/17 02:19:50;;;;;;;1.45;0.80;;;;;;;8.48;97.00;97246.19;4539499;26;20240;-81
2024/04/17 02:21:53;;;;;;;1.58;0.80;;;;;;;8.49;97.10;97232.22;4540411;26;20390;-82
2024/04/17 02:24:00;;;;;;;1.83;0.80;;;;;;;8.47;97.25;97236.72;4535991;26;20241;-82
2024/04/17 02:26:03;;;;;;;1.60;0.80;;;;;;;8.46;96.60;97229.84;4541932;26;20758;-81
2024/04/17 02:28:09;;;;;;;1.92;0.80;;;;;;;8.47;96.86;97231.53;4534448;25;20313;-82
2024/04/17 02:30:12;;;;;;;1.52;0.75;;;;;;;8.48;96.17;97228.00;4504548;26;20767;-81
2024/04/17 02:32:20;;;;;;;1.75;0.90;;;;;;;8.49;96.83;97237.44;4536701;26;20284;-80
2024/04/17 02:34:23;;;;;;;2.05;1.02;;;;;;;8.51;97.22;97238.16;4527763;26;20252;-82
2024/04/17 02:36:29;;;;;;;3.17;1.17;;;;;;;8.52;97.27;97237.19;4541174;26;20283;-82
2024/04/17 02:38:32;;;;;;;1.70;1.03;;;;;;;8.51;97.89;97232.97;4537246;26;20681;-80
2024/04/17 02:40:37;;;;;;;1.90;0.90;;;;;;;8.50;97.42;97231.28;4535718;26;20649;-81
2024/04/17 02:42:40;;;;;;;2.70;1.20;;;;;;;8.48;97.97;97230.59;4532104;26;20280;-81
2024/04/17 02:44:46;;;;;;;1.70;1.20;;;;;;;8.49;97.68;97237.44;4500155;26;20293;-82
2024/04/17 02:46:49;;;;;;;2.60;1.20;;;;;;;8.51;97.53;97238.16;4540733;26;21661;-82
2024/04/17 02:48:58;;;;;;;2.97;1.10;;;;;;;8.51;97.07;97243.34;4537770;26;20249;-81
2024/04/17 02:51:01;;;;;;;1.83;1.13;;;;;;;8.47;97.26;97242.72;4532068;26;20248;-82
2024/04/17 02:53:06;;;;;;;2.55;1.70;;;;;;;8.48;97.31;97248.78;4541382;26;20244;-82
2024/04/17 02:55:09;;;;;;;2.10;1.37;;;;;;;8.50;98.00;97249.47;4542322;25;20285;-81
2024/04/17 02:57:15;;;;;;;1.73;1.30;;;;;;;8.53;98.16;97250.06;4532317;26;20598;-81
2024/04/17 02:59:17;;;;;;;1.50;1.10;;;;;;;8.56;97.73;97254.22;4507015;26;21428;-80
2024/04/17 03:01:23;;;;;;;2.42;1.48;;;;;;;8.53;97.20;97249.25;4545284;26;20636;-81
2024/04/17 03:03:26;;;;;;;2.33;1.48;;;;;;;8.54;97.15;97250.94;4526752;26;20595;-80
2024/04/17 03:05:36;;;;;;;3.30;1.42;;;;;;;8.49;97.40;97245.22;4528669;26;20284;-82
2024/04/17 03:07:39;;;;;;;1.80;1.20;;;;;;;8.48;97.99;97249.59;4534194;26;20604;-81
2024/04/17 03:09:45;;;;;;;1.50;0.90;;;;;;;8.49;97.57;97250.41;4539982;26;20288;-81
2024/04/17 03:11:48;;;;;;;3.47;1.38;;;;;;;8.47;98.33;97244.50;4511729;26;20245;-82
2024/04/17 03:13:54;;;;;;;1.90;1.45;;;;;;;8.48;97.99;97240.97;4530212;26;20676;-82
2024/04/17 03:16:01;;;;;;;2.78;1.00;;;;;;;8.52;97.35;97245.00;4535439;26;20274;-80
2024/04/17 03:18:07;;;;;;;1.67;1.10;;;;;;;8.54;97.71;97245.72;4512284;26;20245;-81
2024/04/17 03:20:11;;;;;;;2.17;1.25;;;;;;;8.55;97.41;97250.81;4558194;26;20236;-80
2024/04/17 03:22:20;;;;;;;2.30;1.50;;;;;;;8.54;97.46;97249.16;4498515;26;20242;-81
2024/04/17 03:24:23;;;;;;;1.95;1.50;;;;;;;8.54;96.94;97248.31;4516436;26;20348;-82
2024/04/17 03:26:28;;;;;;;2.80;2.00;;;;;;;8.54;97.51;97253.53;4531158;26;20252;-81
2024/04/17 03:28:31;;;;;;;3.42;2.10;;;;;;;8.55;97.32;97249.97;4566207;25;20243;-81
2024/04/17 03:30:36;;;;;;;2.50;1.90;;;;;;;8.54;97.29;97251.75;4522691;26;20275;-81
2024/04/17 03:32:39;;;;;;;2.78;2.10;;;;;;;8.54;97.13;97256.13;4506962;26;20246;-81
2024/04/17 03:34:46;;;;;;;3.22;1.92;;;;;;;8.53;97.08;97263.06;4502687;26;21110;-81
2024/04/17 03:36:51;;;;;;;2.80;2.30;;;;;;;8.55;97.46;97266.41;4527869;26;20319;-81
2024/04/17 03:38:59;;;;;;;3.63;2.00;;;;;;;8.55;97.16;97256.00;4533669;26;20562;-81
2024/04/17 03:41:05;;;;;;;2.97;2.30;;;;;;;8.54;97.39;97256.13;4531980;26;20283;-81
2024/04/17 03:43:08;;;;;;;3.00;2.20;;;;;;;8.55;96.93;97265.56;4536276;26;20368;-81
2024/04/17 03:45:14;;;;;;;4.37;2.20;;;;;;;8.56;96.73;97259.44;4526641;26;20272;-81
2024/04/17 03:47:21;;;;;;;2.35;1.80;;;;;;;8.57;96.62;97263.69;4529238;26;20727;-81
2024/04/17 03:49:24;;;;;;;2.78;2.13;;;;;;;8.57;96.88;97268.88;4527218;26;20269;-81
2024/04/17 03:51:29;;;;;;;2.92;2.38;;;;;;;8.58;96.88;97268.75;4529246;26;20309;-81
2024/04/17 03:53:32;;;;;;;3.25;2.95;;;;;;;8.59;96.63;97267.00;4536477;26;20248;-81
2024/04/17 03:55:40;;;;;;;5.30;3.13;;;;;;;8.59;96.76;97269.59;4534131;26;20241;-81
2024/04/17 03:57:44;;;;;;;2.40;1.90;;;;;;;8.60;96.83;97277.28;4552224;26;20258;-82
2024/04/17 03:59:50;;;;;;;3.58;2.65;;;;;;;8.58;97.18;97270.53;4531187;26;20563;-82
2024/04/17 04:01:53;;;;;;;2.55;2.15;;;;;;;8.58;97.61;97283.53;4559442;26;20254;-81
2024/04/17 04:03:58;;;;;;;3.50;2.40;;;;;;;8.59;96.97;97277.41;4540199;26;20266;-82
2024/04/17 04:06:01;;;;;;;4.45;2.53;;;;;;;8.60;97.42;97273.81;4503007;26;20263;-82
2024/04/17 04:08:08;;;;;;;3.50;2.45;;;;;;;8.62;97.02;97282.38;4530522;26;21010;-81
2024/04/17 04:10:11;;;;;;;3.50;2.83;;;;;;;8.61;97.58;97280.69;4529453;26;20281;-79
2024/04/17 04:12:19;;;;;;;3.60;2.80;;;;;;;8.61;97.28;97285.91;4512725;26;20330;-81
2024/04/17 04:14:22;;;;;;;3.33;2.63;;;;;;;8.63;97.48;97289.19;4539298;26;20240;-81
2024/04/17 04:16:28;;;;;;;4.43;3.50;;;;;;;8.64;97.43;97294.28;4530932;26;20240;-81
2024/04/17 04:18:31;;;;;;;4.75;3.78;;;;;;;8.63;97.95;97294.41;4507690;26;20812;-81
2024/04/17 04:20:37;;;;;;;5.10;3.83;;;;;;;8.62;97.43;97298.78;4573648;25;20253;-81
2024/04/17 04:22:40;;;;;;;4.18;3.53;;;;;;;8.62;97.48;97300.56;4544333;26;20243;-82
2024/04/17 04:24:45;;;;;;;6.70;4.47;;;;;;;8.60;97.15;97305.88;4531464;26;20245;-81
2024/04/17 04:26:48;;;;;;;5.53;4.55;;;;;;;8.59;97.40;97296.41;4530244;26;20299;-81
2024/04/17 04:28:56;;;;;;;6.72;4.55;;;;;;;8.63;97.07;97304.78;4515147;26;20300;-81
2024/04/17 04:30:59;;;;;;;5.68;4.60;;;;;;;8.62;97.94;97300.56;4555934;26;20240;-82
2024/04/17 04:33:06;;;;;;;5.90;4.47;;;;;;;8.63;98.10;97300.44;4530765;26;20626;-81
2024/04/17 04:35:10;;;;;;;6.50;4.22;;;;;;;8.63;97.36;97304.78;4498620;26;20301;-82
2024/04/17 04:37:15;;;;;;;6.68;5.40;;;;;;;8.63;97.63;97304.78;4496324;26;20246;-80
2024/04/17 04:39:18;;;;;;;5.75;5.10;;;;;;;8.62;97.73;97313.56;4527952;26;20266;-81
2024/04/17 04:41:25;;;;;;;5.35;4.35;;;;;;;8.64;98.08;97316.84;4532102;26;20699;-84
2024/04/17 04:43:28;;;;;;;6.73;5.77;;;;;;;8.66;97.83;97320.16;4542653;26;20249;-82
2024/04/17 04:45:36;;;;;;;6.20;5.13;;;;;;;8.66;97.30;97309.75;4535127;26;20630;-82
2024/04/17 04:47:39;;;;;;;7.50;5.55;;;;;;;8.61;97.85;97310.09;4520097;26;20309;-82
2024/04/17 04:49:46;;;;;;;7.05;5.50;;;;;;;8.61;98.40;97317.06;4544039;26;20660;-82
2024/04/17 04:51:49;;;;;;;6.68;5.40;;;;;;;8.63;98.46;97317.78;4499145;26;20250;-82
2024/04/17 04:53:56;;;;;;;7.63;5.60;;;;;;;8.64;98.13;97319.47;4532384;26;20982;-81
2024/04/17 04:56:01;;;;;;;7.68;5.28;;;;;;;8.65;98.01;97314.16;4536583;26;20331;-81
2024/04/17 04:58:07;;;;;;;8.35;6.40;;;;;;;8.68;97.84;97323.50;4542930;26;20782;-82
2024/04/17 05:00:11;;;;;;;7.20;5.40;;;;;;;8.70;97.82;97317.22;4528409;26;20288;-82
2024/04/17 05:02:20;;;;;;;8.63;5.82;;;;;;;8.70;97.53;97325.03;4533939;26;20748;-82
2024/04/17 05:04:23;;;;;;;8.18;6.03;;;;;;;8.71;98.23;97323.28;4524855;26;20241;-81
2024/04/17 05:06:27;;;;;;;6.45;5.28;;;;;;;8.73;97.83;97326.59;4536922;26;20276;-82
2024/04/17 05:08:32;;;;;;;6.93;5.53;;;;;;;8.74;96.96;97320.44;4530824;26;20269;-81
2024/04/17 05:10:37;;;;;;;8.10;5.70;;;;;;;8.74;97.30;97328.25;4543592;26;20243;-82
2024/04/17 05:12:43;;;;;;;7.70;5.40;;;;;;;8.74;97.34;97321.28;4560907;26;20278;-81
2024/04/17 05:14:45;;;;;;;7.07;5.53;;;;;;;8.74;96.62;97331.66;4567989;26;20252;-81
2024/04/17 05:16:48;;;;;;;6.82;5.55;;;;;;;8.75;96.83;97330.75;4534938;26;20633;-81
2024/04/17 05:18:57;;;;;;;7.30;5.80;;;;;;;8.75;97.05;97330.75;4532500;26;20750;-82
2024/04/17 05:21:00;;;;;;;6.93;5.55;;;;;;;8.75;96.96;97342.88;4492389;26;20276;-81
2024/04/17 05:23:07;;;;;;;7.60;6.07;;;;;;;8.75;97.02;97342.88;4516724;26;21129;-82
2024/04/17 05:25:10;;;;;;;8.23;5.90;;;;;;;8.76;97.05;97344.56;4524101;26;20253;-81
2024/04/17 05:27:15;;;;;;;7.15;5.80;;;;;;;8.78;97.17;97345.25;4538727;26;20810;-81
2024/04/17 05:29:19;;;;;;;6.63;5.78;;;;;;;8.78;97.18;97338.31;4545502;26;20245;-81
2024/04/17 05:31:25;;;;;;;6.90;5.82;;;;;;;8.78;96.93;97340.91;4528891;26;20237;-81
2024/04/17 05:33:28;;;;;;;8.77;5.70;;;;;;;8.78;96.76;97342.66;4563238;26;20252;-81
2024/04/17 05:35:36;;;;;;;6.60;5.55;;;;;;;8.78;96.91;97343.50;4545053;26;20256;-81
2024/04/17 05:37:39;;;;;;;7.55;5.78;;;;;;;8.81;96.79;97347.63;4546370;26;20279;-81
2024/04/17 05:39:45;;;;;;;8.10;6.47;;;;;;;8.84;96.94;97350.88;4541795;26;20303;-81
2024/04/17 05:41:49;;;;;;;7.50;5.55;;;;;;;8.86;97.01;97346.38;4518967;26;20303;-81
2024/04/17 05:43:55;;;;;;;6.32;5.30;;;;;;;8.90;97.21;97341.75;4541128;26;20241;-81
2024/04/17 05:45:58;;;;;;;7.15;5.78;;;;;;;8.92;96.71;97342.50;4536249;26;20244;-81
2024/04/17 05:48:04;;;;;;;8.20;6.57;;;;;;;8.95;97.09;97346.50;4546317;26;20319;-81
2024/04/17 05:50:08;;;;;;;7.05;5.70;;;;;;;9.01;96.97;97345.25;4540557;26;20231;-81
2024/04/17 05:52:17;;;;;;;7.97;6.53;;;;;;;9.07;97.16;97343.00;4540135;26;20360;-80
2024/04/17 05:54:19;;;;;;;9.27;6.05;;;;;;;9.12;97.38;97353.88;4529217;26;20645;-81
2024/04/17 05:56:25;;;;;;;7.05;6.05;;;;;;;9.15;97.70;97350.25;4505599;26;20244;-81
2024/04/17 05:58:28;;;;;;;8.18;6.65;;;;;;;9.17;97.27;97353.53;4542093;26;20267;-81
2024/04/17 06:00:34;;;;;;;8.07;6.77;;;;;;;9.18;97.13;97352.63;4543874;26;20262;-81
2024/04/17 06:02:37;;;;;;;8.20;6.72;;;;;;;9.17;96.91;97349.19;4532502;26;20571;-81
2024/04/17 06:04:43;;;;;;;8.70;6.90;;;;;;;9.15;97.35;97361.47;4552066;26;20570;-81
2024/04/17 06:06:46;;;;;;;8.70;7.50;;;;;;;9.16;96.25;97355.34;4509433;26;20555;-81
2024/04/17 06:08:54;;;;;;;9.07;6.43;;;;;;;9.17;96.56;97359.59;4539148;26;20237;-82
2024/04/17 06:10:58;;;;;;;8.75;6.95;;;;;;;9.19;96.71;97362.09;4549093;26;20618;-81
2024/04/17 06:13:04;;;;;;;10.05;7.28;;;;;;;9.17;96.86;97364.81;4539629;26;20268;-81
2024/04/17 06:15:07;;;;;;;9.10;7.20;;;;;;;9.18;97.06;97365.63;4532826;26;20241;-81
2024/04/17 06:17:13;;;;;;;8.20;6.95;;;;;;;9.18;97.06;97366.44;4510867;26;20250;-78
2024/04/17 06:19:16;;;;;;;7.97;7.07;;;;;;;9.20;97.20;97369.78;4533538;26;20237;-81
2024/04/17 06:21:22;;;;;;;9.70;7.20;;;;;;;9.20;96.69;97371.53;4511904;26;20641;-81
2024/04/17 06:23:25;;;;;;;10.65;8.57;;;;;;;9.20;97.04;97369.78;4540426;26;20564;-81
2024/04/17 06:25:33;;;;;;;11.88;9.20;;;;;;;9.21;96.72;97368.81;4535808;25;20340;-81
2024/04/17 06:27:36;;;;;;;11.40;8.27;;;;;;;9.23;96.82;97381.72;4509517;26;20276;-81
2024/04/17 06:29:42;;;;;;;10.40;8.27;;;;;;;9.23;96.65;97379.97;4542529;26;21223;-82
2024/04/17 06:31:45;;;;;;;11.48;8.00;;;;;;;9.21;96.35;97375.81;4536614;26;20648;-82
2024/04/17 06:33:50;;;;;;;12.17;8.63;;;;;;;9.19;96.64;97378.50;4543258;26;20252;-82
2024/04/17 06:35:53;;;;;;;10.25;7.97;;;;;;;9.23;97.30;97385.16;4543246;26;20648;-82
2024/04/17 06:38:00;;;;;;;10.48;8.65;;;;;;;9.26;97.85;97384.09;4536933;26;20236;-82
2024/04/17 06:40:05;;;;;;;13.38;8.65;;;;;;;9.28;99.57;97382.22;4527514;26;20242;-81
2024/04/17 06:42:13;;;;;;;12.73;9.52;;;;;;;9.34;98.02;97387.78;4528991;26;20241;-81
2024/04/17 06:44:17;;;;;;;12.32;8.82;;;;;;;9.41;97.81;97386.34;4538887;26;20296;-82
2024/04/17 06:46:22;;;;;;;10.40;8.32;;;;;;;9.44;97.11;97396.53;4535854;26;20284;-82
2024/04/17 06:48:25;;;;;;;11.03;8.70;;;;;;;9.44;96.68;97393.94;4540117;26;20289;-82
2024/04/17 06:50:31;;;;;;;11.00;9.00;;;;;;;9.42;96.51;97390.63;4546327;25;20601;-81
2024/04/17 06:52:34;;;;;;;10.75;8.13;;;;;;;9.43;96.19;97389.69;4533426;25;20568;-83
2024/04/17 06:54:39;;;;;;;12.97;9.70;;;;;;;9.46;96.86;97387.69;4538221;26;20314;-81
2024/04/17 06:56:43;;;;;;;12.70;10.00;;;;;;;9.50;96.73;97394.34;4504933;26;21220;-81
2024/04/17 06:58:51;;;;;;;30.47;19.60;;;;;;;9.55;96.84;97396.59;4530929;26;20564;-81
2024/04/17 07:00:54;;;;;;;11.93;8.57;;;;;;;9.60;96.69;97394.47;4533196;26;21212;-81
2024/04/17 07:03:00;;;;;;;11.27;8.13;;;;;;;9.65;96.48;97397.53;4507952;26;20289;-81
2024/04/17 07:05:07;;;;;;;13.67;10.70;;;;;;;9.70;96.64;97400.63;4532780;26;20237;-78
2024/04/17 07:07:13;;;;;;;12.70;9.48;;;;;;;9.72;96.23;97398.75;4544688;26;20558;-80
2024/04/17 07:09:16;;;;;;;15.55;11.70;;;;;;;9.74;96.34;97407.25;4542081;26;20271;-79
2024/04/17 07:11:22;;;;;;;9.95;8.85;;;;;;;9.74;96.39;97402.03;4522007;26;20675;-79
2024/04/17 07:13:25;;;;;;;10.43;7.87;;;;;;;9.76;96.75;97406.19;4536083;26;20237;-79
2024/04/17 07:15:33;;;;;;;9.50;6.80;;;;;;;9.78;96.36;97399.09;4495656;26;20620;-79
2024/04/17 07:17:37;;;;;;;7.53;6.00;;;;;;;9.80;96.69;97401.59;4536656;26;20554;-79
2024/04/17 07:19:43;;;;;;;8.30;6.40;;;;;;;9.79;96.26;97405.13;4497178;26;20285;-79
2024/04/17 07:21:46;;;;;;;7.50;5.30;;;;;;;9.80;95.46;97397.19;4497376;26;20992;-79
2024/04/17 07:23:53;;;;;;;7.73;5.63;;;;;;;9.82;95.47;97399.69;4536725;26;20647;-79
2024/04/17 07:25:56;;;;;;;8.00;5.37;;;;;;;9.80;94.70;97404.19;4528274;26;20555;-81
2024/04/17 07:28:02;;;;;;;6.45;5.32;;;;;;;9.78;94.19;97400.88;4535356;26;20599;-80
2024/04/17 07:30:06;;;;;;;8.35;5.00;;;;;;;9.78;94.33;97406.91;4534990;26;20242;-80
2024/04/17 07:32:15;;;;;;;7.88;5.43;;;;;;;9.79;94.79;97403.38;4555033;26;20343;-80
2024/04/17 07:34:18;;;;;;;6.53;4.93;;;;;;;9.80;94.58;97406.78;4499311;26;20253;-81
2024/04/17 07:36:23;;;;;;;7.55;5.40;;;;;;;9.81;95.06;97405.84;4540246;26;20621;-81
2024/04/17 07:38:26;;;;;;;7.60;6.10;;;;;;;9.82;94.94;97408.34;4536467;26;20297;-81
2024/04/17 07:40:34;;;;;;;8.85;6.60;;;;;;;9.81;94.96;97409.28;4550700;26;20758;-81
2024/04/17 07:42:37;;;;;;;8.70;6.40;;;;;;;9.84;95.10;97412.47;4525540;26;20275;-81
2024/04/17 07:44:44;;;;;;;8.57;6.85;;;;;;;9.85;95.25;97406.31;4563201;25;21098;-81
2024/04/17 07:46:47;;;;;;;9.45;7.55;;;;;;;9.89;95.59;97410.38;4531207;26;20636;-80
2024/04/17 07:48:56;;;;;;;10.07;8.30;;;;;;;9.90;95.43;97409.41;4544961;26;20737;-80
2024/04/17 07:50:58;;;;;;;9.70;7.95;;;;;;;9.97;95.67;97410.63;4526614;26;20249;-80
2024/04/17 07:53:04;;;;;;;9.88;8.25;;;;;;;10.01;96.39;97412.06;4540206;26;20672;-80
2024/04/17 07:55:07;;;;;;;10.27;8.77;;;;;;;10.01;95.69;97414.66;4544308;26;20264;-81
2024/04/17 07:57:12;;;;;;;9.30;7.70;;;;;;;9.98;95.62;97412.28;4542641;26;20778;-80
2024/04/17 07:59:17;;;;;;;9.93;7.50;;;;;;;9.97;95.20;97409.81;4548219;26;20567;-80
2024/04/17 08:01:23;;;;;;;8.85;7.45;;;;;;;9.91;93.79;97405.84;4537281;26;20562;-80
2024/04/17 08:03:26;;;;;;;9.20;6.97;;;;;;;9.92;93.91;97404.06;4537711;26;20757;-80
2024/04/17 08:05:34;;;;;;;9.40;6.80;;;;;;;9.94;94.42;97408.25;4522195;26;20771;-80
2024/04/17 08:07:37;;;;;;;8.77;7.00;;;;;;;10.04;94.88;97410.97;4545167;26;20555;-80
2024/04/17 08:09:43;;;;;;;8.43;6.93;;;;;;;10.15;94.95;97409.22;4539645;26;20586;-80
2024/04/17 08:11:46;;;;;;;9.07;6.93;;;;;;;10.28;94.43;97417.72;4541768;26;20280;-80
2024/04/17 08:13:52;;;;;;;9.20;6.93;;;;;;;10.44;94.88;97423.41;4536827;26;20619;-80
2024/04/17 08:15:56;;;;;;;8.57;6.55;;;;;;;10.57;95.31;97427.53;4535579;26;21234;-80
2024/04/17 08:18:01;;;;;;;9.00;6.37;;;;;;;10.60;94.15;97424.69;4542517;26;20322;-81
2024/04/17 08:20:06;;;;;;;16.00;12.45;;;;;;;10.61;94.77;97426.31;4539317;26;20567;-79
2024/04/17 08:22:14;;;;;;;10.77;7.30;;;;;;;10.53;92.09;97410.47;4532030;26;20318;-79
2024/04/17 08:24:19;;;;;;;12.23;8.32;;;;;;;10.55;93.10;97412.94;4504204;26;20667;-80
2024/04/17 08:26:26;;;;;;;9.70;7.70;;;;;;;10.54;92.83;97419.97;4536711;26;20276;-81
2024/04/17 08:28:29;;;;;;;10.10;7.90;;;;;;;10.51;93.47;97424.59;4544771;26;20578;-79
2024/04/17 08:30:35;;;;;;;10.10;8.13;;;;;;;10.46;92.78;97422.34;4544427;26;20583;-79
2024/04/17 08:32:41;;;;;;;9.73;7.53;;;;;;;10.41;92.61;97415.81;4534143;26;20560;-79
2024/04/17 08:34:48;;;;;;;9.17;7.30;;;;;;;10.28;92.38;97428.13;4544178;26;20574;-80
2024/04/17 08:36:54;;;;;;;8.40;7.03;;;;;;;10.08;91.23;97420.22;4538124;26;20566;-79
2024/04/17 08:39:03;;;;;;;8.20;6.93;;;;;;;10.06;91.86;97417.75;4523061;26;21088;-79
2024/04/17 08:41:07;;;;;;;7.97;4.87;;;;;;;9.90;89.49;97422.41;4512390;26;20563;-80
2024/04/17 08:43:22;;;;;;;9.07;5.53;;;;;;;9.76;89.21;97413.16;4541888;26;20570;-79
2024/04/17 08:45:32;;;;;;;7.17;5.20;;;;;;;9.64;90.62;97417.53;4538873;26;21285;-80
2024/04/17 08:47:43;;;;;;;42.27;24.60;;;;;;;9.63;90.25;97409.84;4544671;26;20641;-79
2024/04/17 08:49:47;;;;;;;26.90;18.27;;;;;;;9.70;91.55;97414.47;4506936;26;20916;-80
2024/04/17 08:51:52;;;;;;;13.70;9.73;;;;;;;9.85;90.90;97419.34;4530982;26;20809;-80
2024/04/17 08:53:57;;;;;;;25.77;17.10;;;;;;;9.89;89.35;97417.31;4532051;26;20577;-79
2024/04/17 08:56:06;;;;;;;8.83;5.13;;;;;;;9.92;89.93;97417.94;4544621;26;20244;-80
2024/04/17 08:58:10;;;;;;;11.50;8.13;;;;;;;9.96;89.76;97427.19;4510562;26;20554;-79
2024/04/17 09:00:16;;;;;;;4.97;3.90;;;;;;;9.94;89.18;97423.88;4533922;26;20572;-79
2024/04/17 09:02:20;;;;;;;22.67;20.53;;;;;;;10.05;90.71;97418.69;4509168;26;20560;-80
2024/04/17 09:04:29;;;;;;;5.90;4.87;;;;;;;10.26;90.81;97430.03;4531226;26;20582;-79
2024/04/17 09:06:33;;;;;;;6.50;4.43;;;;;;;10.46;90.21;97435.38;4532493;26;20629;-79
2024/04/17 09:08:39;;;;;;;6.10;4.80;;;;;;;10.61;90.61;97428.94;4509617;26;20238;-79
2024/04/17 09:10:42;;;;;;;7.50;6.20;;;;;;;10.82;93.10;97433.31;4511302;26;20682;-79
2024/04/17 09:12:51;;;;;;;7.25;5.70;;;;;;;11.00;92.03;97437.03;4533494;26;20564;-80
2024/04/17 09:14:57;;;;;;;7.93;5.67;;;;;;;11.20;91.38;97436.25;4550568;25;21318;-79
2024/04/17 09:17:02;;;;;;;8.43;6.90;;;;;;;11.32;92.59;97432.63;4510924;26;20586;-80
2024/04/17 09:19:07;;;;;;;8.80;7.40;;;;;;;11.42;91.26;97431.75;4508397;26;20559;-79
2024/04/17 09:21:13;;;;;;;8.27;6.33;;;;;;;11.50;90.75;97426.78;4539402;25;20574;-79
2024/04/17 09:23:16;;;;;;;10.67;6.47;;;;;;;11.42;87.01;97423.09;4536705;26;20582;-79
2024/04/17 09:25:22;;;;;;;9.93;6.63;;;;;;;11.39;88.58;97431.19;4503075;26;20635;-79
2024/04/17 09:27:25;;;;;;;8.20;7.20;;;;;;;11.43;88.35;97432.59;4537458;26;20558;-79
2024/04/17 09:29:35;;;;;;;8.63;6.83;;;;;;;11.51;88.08;97432.81;4542812;26;20685;-79
2024/04/17 09:31:38;;;;;;;10.90;8.07;;;;;;;11.48;87.30;97427.84;4535344;25;20570;-78
2024/04/17 09:33:46;;;;;;;10.57;7.60;;;;;;;11.55;88.45;97427.22;4512289;26;20564;-79
2024/04/17 09:35:49;;;;;;;9.60;7.40;;;;;;;11.64;88.70;97431.69;4526123;26;20546;-79
2024/04/17 09:37:58;;;;;;;9.93;7.33;;;;;;;11.68;89.14;97435.72;4570799;25;21090;-79
2024/04/17 09:40:04;;;;;;;8.73;7.83;;;;;;;11.74;89.73;97444.81;4556851;26;20544;-80
2024/04/17 09:42:11;;;;;;;9.47;8.00;;;;;;;11.78;89.84;97436.56;4527022;26;20560;-79
2024/04/17 09:44:15;;;;;;;10.60;8.30;;;;;;;11.86;89.95;97442.84;4535668;26;20616;-79
2024/04/17 09:46:25;;;;;;;15.87;8.73;;;;;;;11.90;88.85;97438.16;4533598;26;20556;-79
2024/04/17 09:48:30;;;;;;;10.20;8.40;;;;;;;11.90;88.27;97452.06;4503965;26;20552;-79
2024/04/17 09:50:34;;;;;;;15.43;9.13;;;;;;;11.84;87.80;97436.88;4533252;26;20687;-79
2024/04/17 09:52:41;;;;;;;10.60;8.60;;;;;;;11.74;88.30;97436.97;4509657;26;20539;-79